Time;durP1;ratioP1;P1;durP2;ratioP2;P2;SDS_P1;SDS_P2;PMS_P1;PMS_P2;Temp;Humidity;BMP_temperature;BMP_pressure;BME280_temperature;BME280_humidity;BME280_pressure;Samples;Min_cycle;Max_cycle;Signal;HPM_P1;HPM_P2
2022/07/21 00:00:27;;;;;;;1.40;1.30;;;27.70;49.50;28.50;96822.00;;;;5072922;28;20282;-87
2022/07/21 00:02:55;;;;;;;1.70;1.60;;;27.70;49.60;28.50;96823.00;;;;5071394;28;20239;-87
2022/07/21 00:05:24;;;;;;;2.47;1.40;;;27.70;49.70;28.40;96809.00;;;;5079585;28;20260;-88
2022/07/21 00:07:53;;;;;;;2.17;1.87;;;27.70;49.80;28.40;96800.00;;;;5072570;28;20211;-87
2022/07/21 00:10:23;;;;;;;1.53;1.43;;;27.60;49.90;28.30;96794.00;;;;5081527;28;20194;-87
2022/07/21 00:12:53;;;;;;;1.60;1.50;;;27.60;50.70;28.30;96789.00;;;;5075150;28;20559;-87
2022/07/21 00:15:23;;;;;;;1.60;1.50;;;27.60;50.90;28.30;96787.00;;;;5070615;28;20247;-86
2022/07/21 00:17:51;;;;;;;2.50;1.50;;;27.50;50.70;28.20;96792.00;;;;5077125;28;20249;-86
2022/07/21 00:20:19;;;;;;;1.80;1.60;;;27.50;51.20;28.20;96796.00;;;;5070602;28;20637;-87
2022/07/21 00:22:47;;;;;;;1.70;1.60;;;27.40;51.70;28.10;96786.00;;;;5072814;28;20238;-86
2022/07/21 00:25:16;;;;;;;1.60;1.50;;;27.40;52.50;28.10;96792.00;;;;5074098;28;20189;-86
2022/07/21 00:27:44;;;;;;;1.57;1.47;;;27.40;51.90;28.10;96793.00;;;;5059580;28;20224;-86
2022/07/21 00:30:19;;;;;;;1.67;1.57;;;27.30;51.60;28.00;96795.00;;;;5066903;28;20219;-87
2022/07/21 00:32:49;;;;;;;2.00;1.40;;;27.30;52.00;27.90;96794.00;;;;5070715;28;20253;-87
2022/07/21 00:35:16;;;;;;;2.77;1.77;;;27.20;51.80;27.90;96796.00;;;;5078676;28;20188;-87
2022/07/21 00:37:44;;;;;;;1.50;1.40;;;27.20;51.80;27.80;96794.00;;;;5063741;28;20220;-87
2022/07/21 00:40:15;;;;;;;1.57;1.30;;;27.10;51.80;27.80;96787.00;;;;5072466;28;20317;-87
2022/07/21 00:42:46;;;;;;;1.60;1.50;;;27.10;51.70;27.70;96787.00;;;;5076949;28;20273;-85
2022/07/21 00:45:23;;;;;;;1.83;1.67;;;27.00;52.00;27.70;96786.00;;;;5071885;28;20192;-86
2022/07/21 00:47:53;;;;;;;2.17;1.70;;;27.00;52.10;27.70;96788.00;;;;5056283;28;20250;-86
2022/07/21 00:50:24;;;;;;;2.07;1.47;;;27.00;52.00;27.60;96791.00;;;;5063296;28;20284;-86
2022/07/21 00:53:00;;;;;;;1.47;1.30;;;26.90;52.60;27.60;96782.00;;;;5075543;28;20562;-86
2022/07/21 00:55:30;;;;;;;1.50;1.40;;;26.90;52.20;27.60;96791.00;;;;5079923;28;20195;-86
2022/07/21 00:57:58;;;;;;;1.40;1.23;;;26.80;52.20;27.50;96782.00;;;;5071411;28;20222;-86
2022/07/21 01:00:30;;;;;;;1.70;1.60;;;26.80;52.10;27.50;96779.00;;;;5063861;28;20239;-87
2022/07/21 01:02:59;;;;;;;1.60;1.30;;;26.80;52.30;27.50;96784.00;;;;5067433;28;20763;-86
2022/07/21 01:05:26;;;;;;;1.50;1.40;;;26.70;52.10;27.50;96797.00;;;;5053414;28;20347;-86
2022/07/21 01:07:58;;;;;;;1.40;1.30;;;26.70;52.40;27.40;96818.00;;;;5072105;28;20247;-86
2022/07/21 01:10:26;;;;;;;1.63;1.53;;;26.70;52.40;27.40;96829.00;;;;5070229;28;20210;-86
2022/07/21 01:12:53;;;;;;;3.50;2.20;;;26.70;52.40;27.40;96818.00;;;;5072002;28;20197;-86
2022/07/21 01:15:22;;;;;;;1.83;1.73;;;26.60;52.50;27.40;96817.00;;;;5068910;28;20238;-87
2022/07/21 01:17:53;;;;;;;2.13;1.50;;;26.60;52.70;27.40;96808.00;;;;5080813;28;20223;-86
2022/07/21 01:20:23;;;;;;;2.20;1.87;;;26.60;52.90;27.30;96805.00;;;;5071858;28;20290;-86
2022/07/21 01:22:55;;;;;;;1.70;1.60;;;26.60;52.90;27.30;96810.00;;;;5070808;28;20751;-86
2022/07/21 01:25:26;;;;;;;1.70;1.60;;;26.50;52.90;27.30;96817.00;;;;5065704;28;20241;-86
2022/07/21 01:27:55;;;;;;;2.30;1.50;;;26.50;52.90;27.30;96826.00;;;;5072813;28;20294;-86
2022/07/21 01:30:25;;;;;;;2.30;1.63;;;26.50;52.90;27.20;96835.00;;;;5088020;28;20257;-86
2022/07/21 01:32:53;;;;;;;3.37;2.07;;;26.50;53.10;27.20;96832.00;;;;5071907;28;20228;-86
2022/07/21 01:35:21;;;;;;;1.70;1.60;;;26.50;53.20;27.20;96828.00;;;;5052200;28;20203;-86
2022/07/21 01:37:49;;;;;;;2.07;1.97;;;26.50;53.30;27.20;96840.00;;;;5063953;28;20283;-86
2022/07/21 01:43:05;;;;;;;3.20;1.90;;;26.40;53.90;27.10;96834.00;;;;5068113;28;20218;-86
2022/07/21 01:45:33;;;;;;;2.20;2.07;;;26.40;54.10;27.10;96835.00;;;;5076455;28;20223;-86
2022/07/21 01:48:00;;;;;;;2.47;2.20;;;26.40;54.30;27.00;96839.00;;;;5070395;28;20310;-86
2022/07/21 01:50:28;;;;;;;2.63;1.90;;;26.30;54.50;27.00;96835.00;;;;5066214;28;20236;-86
2022/07/21 01:52:58;;;;;;;2.43;2.17;;;26.30;54.80;27.00;96832.00;;;;5075379;28;20191;-86
2022/07/21 01:55:28;;;;;;;2.40;1.80;;;26.30;55.00;27.00;96828.00;;;;5066514;28;20196;-86
2022/07/21 01:57:55;;;;;;;2.50;1.80;;;26.30;55.30;26.90;96825.00;;;;5078250;28;20216;-86
2022/07/21 02:00:22;;;;;;;2.20;2.00;;;26.20;55.20;26.90;96827.00;;;;5082462;22;20291;-83
2022/07/21 02:02:50;;;;;;;2.43;1.90;;;26.20;55.40;26.90;96807.00;;;;5034900;28;20212;-83
2022/07/21 02:05:17;;;;;;;1.90;1.80;;;26.20;55.50;26.90;96807.00;;;;5058393;28;20192;-84
2022/07/21 02:07:44;;;;;;;2.37;1.70;;;26.20;55.60;26.90;96800.00;;;;5072183;28;20223;-84
2022/07/21 02:10:12;;;;;;;3.70;2.00;;;26.20;55.80;26.90;96797.00;;;;5072425;28;20231;-85
2022/07/21 02:12:40;;;;;;;2.33;2.13;;;26.10;55.70;26.90;96800.00;;;;5072062;28;20208;-84
2022/07/21 02:15:10;;;;;;;2.30;2.03;;;26.10;55.90;26.90;96805.00;;;;5074110;28;20196;-84
2022/07/21 02:17:37;;;;;;;3.40;1.80;;;26.10;56.00;26.90;96820.00;;;;5064862;28;20219;-85
2022/07/21 02:20:12;;;;;;;1.80;1.70;;;26.10;56.00;26.90;96823.00;;;;5055762;28;20278;-85
2022/07/21 02:22:39;;;;;;;2.77;1.90;;;26.10;56.10;26.80;96821.00;;;;5055579;28;20184;-84
2022/07/21 02:25:07;;;;;;;2.13;1.93;;;26.10;56.10;26.80;96816.00;;;;5055815;28;20204;-84
2022/07/21 02:27:34;;;;;;;2.13;1.93;;;26.10;56.30;26.80;96822.00;;;;5064356;28;20488;-84
2022/07/21 02:30:07;;;;;;;2.87;2.27;;;26.00;56.30;26.80;96827.00;;;;5055797;28;20267;-85
2022/07/21 02:32:34;;;;;;;2.13;1.83;;;26.00;56.50;26.70;96832.00;;;;5056698;28;20196;-85
2022/07/21 02:35:02;;;;;;;2.00;1.90;;;26.00;56.60;26.70;96837.00;;;;5059979;28;20222;-84
2022/07/21 02:37:29;;;;;;;1.90;1.80;;;26.00;56.60;26.70;96837.00;;;;5075136;28;20372;-85
2022/07/21 02:39:57;;;;;;;3.00;2.30;;;26.00;56.60;26.70;96827.00;;;;5063529;28;20251;-84
2022/07/21 02:42:27;;;;;;;2.10;2.00;;;26.00;56.70;26.70;96825.00;;;;5055216;28;20192;-85
2022/07/21 02:44:54;;;;;;;2.10;2.00;;;26.00;56.80;26.70;96842.00;;;;5058407;28;20563;-85
2022/07/21 02:47:23;;;;;;;2.10;2.00;;;25.90;56.90;26.70;96845.00;;;;5075023;28;20250;-85
2022/07/21 02:49:50;;;;;;;1.87;1.77;;;26.00;57.00;26.70;96839.00;;;;5075239;28;20199;-84
2022/07/21 02:52:17;;;;;;;2.43;2.07;;;25.90;56.90;26.70;96848.00;;;;5074600;28;20200;-84
2022/07/21 02:54:45;;;;;;;2.30;2.20;;;25.90;56.90;26.70;96839.00;;;;5054573;28;20204;-85
2022/07/21 02:57:14;;;;;;;2.40;2.20;;;25.90;56.90;26.70;96848.00;;;;5054983;28;20287;-85
2022/07/21 02:59:41;;;;;;;2.43;2.23;;;25.90;57.10;26.70;96845.00;;;;5054759;28;20282;-85
2022/07/21 03:02:09;;;;;;;3.93;2.00;;;25.90;57.10;26.70;96844.00;;;;5053974;28;20722;-85
2022/07/21 03:04:37;;;;;;;3.77;2.20;;;25.90;57.10;26.70;96838.00;;;;5063777;28;20216;-85
2022/07/21 03:07:04;;;;;;;2.40;2.20;;;25.90;57.30;26.70;96838.00;;;;5074811;28;20196;-84
2022/07/21 03:09:32;;;;;;;2.50;2.40;;;25.90;57.30;26.60;96828.00;;;;5075119;28;20204;-85
2022/07/21 03:11:59;;;;;;;2.20;1.97;;;25.90;57.30;26.60;96834.00;;;;5069810;28;20340;-85
2022/07/21 03:14:27;;;;;;;2.60;2.40;;;25.90;57.50;26.60;96824.00;;;;5054608;28;20262;-84
2022/07/21 03:16:54;;;;;;;2.63;2.43;;;25.80;57.50;26.60;96828.00;;;;5053890;28;20251;-85
2022/07/21 03:19:21;;;;;;;2.93;2.20;;;25.90;57.50;26.60;96824.00;;;;5054214;28;20231;-85
2022/07/21 03:21:50;;;;;;;2.57;2.30;;;25.80;57.60;26.60;96819.00;;;;5054149;28;20242;-85
2022/07/21 03:24:17;;;;;;;1.93;1.83;;;25.90;57.80;26.60;96820.00;;;;5053542;28;20220;-84
2022/07/21 03:26:44;;;;;;;2.10;2.00;;;25.80;57.70;26.60;96817.00;;;;5070848;28;20245;-85
2022/07/21 03:29:11;;;;;;;2.10;2.00;;;25.80;57.80;26.60;96817.00;;;;5073762;28;20696;-85
2022/07/21 03:31:39;;;;;;;2.50;2.30;;;25.80;57.90;26.60;96817.00;;;;5073967;28;20265;-85
2022/07/21 03:34:06;;;;;;;4.03;2.40;;;25.80;58.20;26.60;96825.00;;;;5073385;28;20230;-85
2022/07/21 03:36:33;;;;;;;2.17;1.97;;;25.80;58.50;26.60;96828.00;;;;5060818;28;20240;-85
2022/07/21 03:39:02;;;;;;;2.17;1.97;;;25.80;58.70;26.60;96834.00;;;;5053915;28;20270;-85
2022/07/21 03:41:30;;;;;;;2.37;2.17;;;25.80;58.80;26.60;96837.00;;;;5043190;28;20205;-85
2022/07/21 03:43:57;;;;;;;2.47;2.37;;;25.80;58.90;26.50;96844.00;;;;5054028;28;20589;-85
2022/07/21 03:46:24;;;;;;;2.53;2.40;;;25.70;58.90;26.50;96847.00;;;;5070462;28;20420;-85
2022/07/21 03:48:52;;;;;;;2.43;2.07;;;25.70;58.90;26.50;96850.00;;;;5073897;28;20597;-85
2022/07/21 03:51:19;;;;;;;2.23;2.13;;;25.70;58.90;26.50;96836.00;;;;5073781;28;20199;-85
2022/07/21 03:53:46;;;;;;;2.20;2.10;;;25.70;59.10;26.50;96833.00;;;;5073746;28;20250;-84
2022/07/21 03:56:17;;;;;;;2.10;2.00;;;25.70;59.10;26.50;96843.00;;;;5073501;28;20195;-85
2022/07/21 03:58:45;;;;;;;2.90;2.00;;;25.70;59.30;26.50;96854.00;;;;5073304;28;20211;-85
2022/07/21 04:01:15;;;;;;;2.10;2.00;;;25.70;59.30;26.50;96849.00;;;;5072691;28;20323;-85
2022/07/21 04:03:46;;;;;;;2.77;2.57;;;25.70;59.30;26.50;96859.00;;;;5054370;28;20217;-85
2022/07/21 04:06:13;;;;;;;2.53;2.33;;;25.70;59.50;26.50;96852.00;;;;5053337;28;20234;-86
2022/07/21 04:08:43;;;;;;;2.57;2.37;;;25.70;59.40;26.50;96856.00;;;;5061013;28;20299;-85
2022/07/21 04:11:13;;;;;;;2.33;2.00;;;25.70;59.50;26.50;96862.00;;;;5049846;28;20196;-86
2022/07/21 04:13:41;;;;;;;2.60;2.40;;;25.70;59.50;26.50;96851.00;;;;5059733;28;20203;-83
2022/07/21 04:16:09;;;;;;;2.30;2.10;;;25.70;59.50;26.50;96848.00;;;;5050919;28;20192;-83
2022/07/21 04:18:36;;;;;;;3.00;2.40;;;25.70;59.60;26.50;96852.00;;;;5061197;28;20221;-84
2022/07/21 04:21:04;;;;;;;2.90;2.70;;;25.70;59.90;26.50;96850.00;;;;5052123;28;20204;-84
2022/07/21 04:23:31;;;;;;;3.10;2.80;;;25.70;59.90;26.50;96855.00;;;;5058941;28;20289;-84
2022/07/21 04:25:59;;;;;;;2.97;2.77;;;25.70;59.90;26.50;96871.00;;;;5055476;28;20223;-84
2022/07/21 04:28:26;;;;;;;3.23;3.03;;;25.70;60.00;26.50;96882.00;;;;5050851;28;20217;-83
2022/07/21 04:30:58;;;;;;;3.10;2.90;;;25.70;60.00;26.50;96877.00;;;;5051234;28;20535;-83
2022/07/21 04:33:25;;;;;;;3.23;3.03;;;25.70;60.10;26.50;96884.00;;;;5065536;28;20246;-83
2022/07/21 04:35:55;;;;;;;3.10;2.90;;;25.70;60.10;26.50;96883.00;;;;5054301;28;20244;-82
2022/07/21 04:38:23;;;;;;;3.27;3.07;;;25.70;60.40;26.50;96887.00;;;;5052315;28;20688;-83
2022/07/21 04:40:52;;;;;;;3.13;2.93;;;25.70;60.40;26.50;96898.00;;;;5053622;28;20287;-83
2022/07/21 04:43:19;;;;;;;4.10;3.80;;;25.80;60.70;26.50;96896.00;;;;5052269;28;20188;-83
2022/07/21 04:45:47;;;;;;;3.83;3.53;;;25.80;61.20;26.50;96901.00;;;;5057685;28;20251;-82
2022/07/21 04:48:15;;;;;;;4.13;3.80;;;25.80;61.10;26.50;96892.00;;;;5053955;28;20216;-83
2022/07/21 04:50:44;;;;;;;3.67;3.47;;;25.80;61.40;26.50;96908.00;;;;5052625;28;20258;-82
2022/07/21 04:53:11;;;;;;;4.23;3.93;;;25.80;61.40;26.50;96908.00;;;;5053852;28;20196;-83
2022/07/21 04:55:38;;;;;;;4.17;3.87;;;25.80;61.60;26.50;96909.00;;;;5060745;28;20207;-83
2022/07/21 04:58:06;;;;;;;4.33;4.03;;;25.80;61.80;26.50;96914.00;;;;5057615;28;20212;-84
2022/07/21 05:00:34;;;;;;;4.33;4.03;;;25.80;61.80;26.60;96918.00;;;;5053188;28;20204;-83
2022/07/21 05:03:04;;;;;;;4.90;3.80;;;25.80;62.00;26.50;96916.00;;;;5058165;28;20246;-83
2022/07/21 05:05:33;;;;;;;3.93;3.63;;;25.80;62.20;26.50;96917.00;;;;5052276;28;20313;-82
2022/07/21 05:08:00;;;;;;;4.93;4.40;;;25.80;62.30;26.50;96914.00;;;;5052431;28;20216;-83
2022/07/21 05:10:27;;;;;;;4.63;4.20;;;25.80;62.30;26.50;96928.00;;;;5054255;28;20204;-83
2022/07/21 05:12:55;;;;;;;4.93;4.53;;;25.80;62.40;26.50;96924.00;;;;5051684;28;20197;-84
2022/07/21 05:15:22;;;;;;;4.30;3.93;;;25.80;62.60;26.50;96931.00;;;;5059026;28;20200;-84
2022/07/21 05:17:49;;;;;;;4.33;4.10;;;25.80;62.60;26.50;96928.00;;;;5052735;28;20228;-84
2022/07/21 05:20:17;;;;;;;4.77;4.07;;;25.70;62.60;26.50;96936.00;;;;5059808;28;20200;-83
2022/07/21 05:22:45;;;;;;;4.40;4.00;;;25.70;62.80;26.50;96941.00;;;;5056857;28;20665;-83
2022/07/21 05:25:13;;;;;;;4.07;3.77;;;25.70;63.00;26.50;96945.00;;;;5054597;28;20220;-83
2022/07/21 05:27:40;;;;;;;4.87;4.47;;;25.70;62.90;26.60;96937.00;;;;5055088;28;20830;-84
2022/07/21 05:30:09;;;;;;;5.10;4.67;;;25.80;63.00;26.60;96942.00;;;;5053702;28;20193;-83
2022/07/21 05:32:37;;;;;;;5.27;4.77;;;25.80;63.00;26.60;96954.00;;;;5054683;28;20223;-83
2022/07/21 05:35:10;;;;;;;5.13;4.63;;;25.80;63.10;26.60;96935.00;;;;5054596;28;20200;-83
2022/07/21 05:37:39;;;;;;;4.33;3.93;;;25.80;63.10;26.60;96944.00;;;;5053103;28;20247;-83
2022/07/21 05:40:10;;;;;;;5.03;4.63;;;25.80;63.30;26.70;96945.00;;;;5053307;28;20197;-83
2022/07/21 05:42:39;;;;;;;5.03;4.63;;;25.80;64.20;26.70;96964.00;;;;5051778;28;20657;-82
2022/07/21 05:45:08;;;;;;;5.37;4.83;;;25.80;63.40;26.70;96961.00;;;;5052535;28;20220;-84
2022/07/21 05:47:35;;;;;;;5.30;4.90;;;25.90;63.50;26.70;96955.00;;;;5051911;28;20220;-83
2022/07/21 05:50:06;;;;;;;5.53;5.03;;;25.90;63.60;26.70;96960.00;;;;5056704;28;20224;-83
2022/07/21 05:52:33;;;;;;;5.73;5.10;;;25.90;63.30;26.70;96956.00;;;;5053670;28;20205;-83
2022/07/21 05:55:04;;;;;;;5.30;4.80;;;25.90;63.30;26.70;96952.00;;;;5058269;28;20281;-83
2022/07/21 05:57:33;;;;;;;4.87;4.50;;;25.90;63.90;26.70;96962.00;;;;5057037;28;20220;-83
2022/07/21 06:00:00;;;;;;;4.73;4.43;;;25.90;64.20;26.70;96959.00;;;;5057493;28;20672;-83
2022/07/21 06:02:29;;;;;;;4.20;3.80;;;25.90;64.20;26.70;96963.00;;;;5056885;28;20266;-84
2022/07/21 06:04:56;;;;;;;4.53;4.10;;;25.90;64.10;26.70;96965.00;;;;5057125;28;20707;-83
2022/07/21 06:07:27;;;;;;;5.43;4.63;;;25.90;64.20;26.70;96967.00;;;;5056729;28;20635;-83
2022/07/21 06:09:54;;;;;;;4.63;4.23;;;25.90;64.20;26.70;96968.00;;;;5055569;28;20239;-83
2022/07/21 06:12:21;;;;;;;4.90;4.50;;;25.90;64.10;26.60;96972.00;;;;5058044;28;20205;-83
2022/07/21 06:14:55;;;;;;;4.80;4.40;;;25.80;64.10;26.60;96971.00;;;;5055982;28;20201;-82
2022/07/21 06:17:22;;;;;;;4.47;4.17;;;25.80;64.60;26.60;96976.00;;;;5056605;28;20307;-83
2022/07/21 06:19:50;;;;;;;4.67;4.37;;;25.80;64.30;26.60;96974.00;;;;5057361;28;20201;-83
2022/07/21 06:22:17;;;;;;;5.30;4.80;;;25.80;64.10;26.60;96981.00;;;;5055081;28;20188;-83
2022/07/21 06:24:44;;;;;;;4.70;4.30;;;25.80;64.20;26.60;96987.00;;;;5053197;28;20570;-83
2022/07/21 06:27:11;;;;;;;5.23;4.73;;;25.80;64.50;26.60;96992.00;;;;5055255;28;20224;-82
2022/07/21 06:29:39;;;;;;;4.83;4.43;;;25.80;64.50;26.70;96983.00;;;;5055517;28;20226;-83
2022/07/21 06:32:08;;;;;;;5.47;4.97;;;25.80;64.40;26.70;96987.00;;;;5056715;28;20196;-82
2022/07/21 06:34:35;;;;;;;5.73;5.07;;;25.80;64.40;26.70;97003.00;;;;5055674;28;20539;-83
2022/07/21 06:37:02;;;;;;;5.60;5.10;;;25.80;64.60;26.70;97000.00;;;;5055374;28;20200;-82
2022/07/21 06:39:29;;;;;;;4.70;4.30;;;25.80;64.40;26.70;96998.00;;;;5056037;28;20287;-82
2022/07/21 06:41:57;;;;;;;5.87;5.37;;;25.80;64.30;26.70;97004.00;;;;5055413;28;20208;-83
2022/07/21 06:44:24;;;;;;;5.17;4.67;;;25.90;64.70;26.80;97009.00;;;;5055693;28;20227;-83
2022/07/21 06:46:52;;;;;;;5.17;4.67;;;25.90;64.70;26.80;97014.00;;;;5056651;28;20716;-82
2022/07/21 06:49:20;;;;;;;5.23;4.73;;;25.90;64.80;26.90;97010.00;;;;5054753;28;20225;-84
2022/07/21 06:51:48;;;;;;;5.60;5.10;;;25.90;64.90;26.90;97016.00;;;;5054592;28;20192;-84
2022/07/21 06:54:15;;;;;;;5.30;4.90;;;26.00;64.70;26.90;97019.00;;;;5054420;28;20208;-83
2022/07/21 06:56:42;;;;;;;5.30;4.90;;;26.00;64.80;27.00;97027.00;;;;5054654;28;20197;-83
2022/07/21 06:59:09;;;;;;;5.03;4.60;;;26.00;64.60;27.00;97024.00;;;;5054072;28;20224;-84
2022/07/21 07:01:38;;;;;;;5.87;5.37;;;26.00;64.40;27.00;97030.00;;;;5055014;28;20274;-83
2022/07/21 07:04:05;;;;;;;5.97;5.47;;;26.00;64.40;27.00;97026.00;;;;5054435;28;20235;-83
2022/07/21 07:06:34;;;;;;;5.13;4.57;;;26.10;64.30;27.00;97023.00;;;;5054981;28;20208;-83
2022/07/21 07:09:02;;;;;;;5.17;4.73;;;26.00;64.20;27.00;97029.00;;;;5055091;28;20208;-83
2022/07/21 07:11:29;;;;;;;5.30;4.90;;;26.00;64.00;27.00;97026.00;;;;5054997;28;20208;-83
2022/07/21 07:13:56;;;;;;;5.20;4.80;;;26.10;64.20;27.00;97032.00;;;;5054927;28;20211;-81
2022/07/21 07:16:23;;;;;;;5.40;4.97;;;26.10;63.90;27.00;97024.00;;;;5055109;28;20208;-83
2022/07/21 07:18:51;;;;;;;5.67;5.23;;;26.10;64.10;27.00;97026.00;;;;5054710;28;20224;-83
2022/07/21 07:21:18;;;;;;;5.33;4.90;;;26.10;64.60;27.10;97040.00;;;;5052753;28;20197;-83
2022/07/21 07:23:47;;;;;;;5.20;4.70;;;26.10;64.50;27.10;97033.00;;;;5054214;28;20634;-83
2022/07/21 07:26:17;;;;;;;5.30;4.90;;;26.20;64.40;27.10;97034.00;;;;5056418;28;20216;-83
2022/07/21 07:29:04;;;;;;;5.50;5.10;;;26.20;64.30;27.20;97039.00;;;;5052732;28;20251;-83
2022/07/21 07:31:39;;;;;;;4.87;4.57;;;26.20;64.30;27.20;97035.00;;;;5063529;28;20253;-83
2022/07/21 07:34:07;;;;;;;5.10;4.70;;;26.20;64.10;27.30;97046.00;;;;5071115;28;20224;-83
2022/07/21 07:36:35;;;;;;;5.27;4.83;;;26.30;63.90;27.30;97042.00;;;;5053905;28;20228;-84
2022/07/21 07:39:05;;;;;;;5.10;4.60;;;26.30;63.70;27.30;97037.00;;;;5059384;28;20629;-86
2022/07/21 07:41:32;;;;;;;4.50;4.10;;;26.40;63.30;27.30;97038.00;;;;5062196;28;20324;-85
2022/07/21 07:44:00;;;;;;;4.53;4.23;;;26.40;63.00;27.30;97045.00;;;;5034371;28;20189;-85
2022/07/21 07:46:28;;;;;;;5.30;4.50;;;26.40;62.90;27.30;97051.00;;;;5053459;28;20224;-85
2022/07/21 07:48:55;;;;;;;4.73;4.17;;;26.40;62.80;27.30;97056.00;;;;5054027;28;20221;-85
2022/07/21 07:51:22;;;;;;;4.17;3.87;;;26.40;62.80;27.30;97048.00;;;;5054336;28;20189;-84
2022/07/21 07:53:50;;;;;;;4.73;4.10;;;26.40;62.60;27.30;97055.00;;;;5053256;28;20196;-85
2022/07/21 07:56:19;;;;;;;4.40;4.10;;;26.40;62.60;27.30;97048.00;;;;5039515;28;20205;-85
2022/07/21 07:58:46;;;;;;;4.30;4.00;;;26.40;62.60;27.40;97048.00;;;;5034380;28;20275;-85
2022/07/21 08:01:16;;;;;;;4.87;4.57;;;26.40;62.50;27.40;97053.00;;;;5068366;22;20332;-83
2022/07/21 08:03:43;;;;;;;4.10;3.80;;;26.40;62.90;27.40;97044.00;;;;5098244;28;20233;-83
2022/07/21 08:06:10;;;;;;;4.83;4.43;;;26.40;62.70;27.40;97042.00;;;;5096595;28;20234;-83
2022/07/21 08:08:38;;;;;;;5.30;4.73;;;26.50;62.50;27.50;97037.00;;;;5096755;28;20310;-82
2022/07/21 08:11:06;;;;;;;4.90;4.50;;;26.50;62.40;27.50;97046.00;;;;5101470;28;20195;-83
2022/07/21 08:13:35;;;;;;;4.70;4.30;;;26.50;62.20;27.50;97042.00;;;;5099671;28;20199;-82
2022/07/21 08:16:03;;;;;;;4.30;4.00;;;26.50;62.30;27.50;97042.00;;;;5100399;28;20647;-83
2022/07/21 08:18:30;;;;;;;4.77;4.33;;;26.50;63.00;27.60;97042.00;;;;5098853;28;20223;-83
2022/07/21 08:20:57;;;;;;;4.83;4.43;;;26.50;62.10;27.60;97045.00;;;;5092002;28;20191;-82
2022/07/21 08:23:24;;;;;;;4.47;4.17;;;26.60;62.10;27.60;97046.00;;;;5102625;28;20713;-82
2022/07/21 08:25:52;;;;;;;4.90;4.40;;;26.60;62.10;27.70;97046.00;;;;5096947;28;20241;-83
2022/07/21 08:28:19;;;;;;;4.70;4.33;;;26.60;62.10;27.70;97047.00;;;;5101437;28;20230;-83
2022/07/21 08:30:47;;;;;;;3.97;3.77;;;26.70;62.30;27.80;97050.00;;;;5096856;28;20191;-83
2022/07/21 08:33:15;;;;;;;4.10;3.80;;;26.70;62.00;27.80;97047.00;;;;5100884;28;20200;-82
2022/07/21 08:35:42;;;;;;;4.23;3.93;;;26.70;61.70;27.80;97049.00;;;;5098749;28;20285;-82
2022/07/21 08:38:11;;;;;;;4.43;4.13;;;26.70;61.60;27.80;97057.00;;;;5100820;28;20214;-82
2022/07/21 08:40:42;;;;;;;4.23;3.83;;;26.80;61.70;27.80;97058.00;;;;5101731;28;20198;-83
2022/07/21 08:43:12;;;;;;;4.67;4.37;;;26.80;61.80;27.80;97057.00;;;;5099874;28;20207;-82
2022/07/21 08:45:41;;;;;;;4.63;3.60;;;26.80;61.70;27.80;97056.00;;;;5097086;28;20253;-83
2022/07/21 08:48:10;;;;;;;5.07;4.67;;;26.80;61.60;27.80;97056.00;;;;5101519;28;20224;-83
2022/07/21 08:50:39;;;;;;;5.00;4.50;;;26.80;61.50;27.80;97050.00;;;;5095530;28;20203;-83
2022/07/21 08:53:07;;;;;;;4.57;4.27;;;26.80;61.60;27.90;97048.00;;;;5102278;28;20195;-83
2022/07/21 08:55:39;;;;;;;4.23;3.93;;;26.90;61.60;27.90;97051.00;;;;5101414;28;20207;-83
2022/07/21 08:58:10;;;;;;;3.67;3.37;;;26.80;61.20;27.90;97051.00;;;;5094047;28;20222;-83
2022/07/21 09:00:39;;;;;;;4.83;3.83;;;26.90;61.00;27.90;97051.00;;;;5104419;28;20225;-83
2022/07/21 09:03:15;;;;;;;3.87;3.57;;;26.90;61.10;27.90;97057.00;;;;5104187;28;20203;-82
2022/07/21 09:05:43;;;;;;;4.60;4.20;;;26.90;61.90;28.00;97065.00;;;;5098916;28;20203;-83
2022/07/21 09:08:11;;;;;;;3.63;3.43;;;26.90;61.00;28.00;97057.00;;;;5101033;28;20219;-83
2022/07/21 09:10:38;;;;;;;4.30;4.00;;;27.00;61.00;28.00;97061.00;;;;5104492;28;20213;-82
2022/07/21 09:13:07;;;;;;;3.93;3.73;;;27.00;60.80;28.00;97058.00;;;;5101272;28;20251;-82
2022/07/21 09:15:38;;;;;;;4.27;3.87;;;27.00;60.70;28.10;97063.00;;;;5101156;28;20564;-83
2022/07/21 09:18:10;;;;;;;3.90;3.67;;;27.00;60.80;28.10;97062.00;;;;5104322;28;20243;-82
2022/07/21 09:20:40;;;;;;;4.43;4.03;;;27.00;60.90;28.10;97059.00;;;;5103455;28;20249;-82
2022/07/21 09:23:10;;;;;;;5.17;4.80;;;27.10;60.90;28.10;97062.00;;;;5105464;28;20199;-83
2022/07/21 09:25:41;;;;;;;4.87;4.57;;;27.10;60.50;28.10;97065.00;;;;5107936;28;20264;-83
2022/07/21 09:28:16;;;;;;;5.70;4.60;;;27.10;60.70;28.10;97068.00;;;;5088774;28;20220;-83
2022/07/21 09:30:54;;;;;;;4.70;4.30;;;27.10;60.60;28.10;97067.00;;;;5086455;28;20203;-83
2022/07/21 09:33:31;;;;;;;4.33;4.03;;;27.10;60.30;28.00;97071.00;;;;5108374;28;20207;-83
2022/07/21 09:36:09;;;;;;;4.77;4.37;;;27.10;60.20;28.10;97069.00;;;;5107747;28;20565;-83
2022/07/21 09:38:39;;;;;;;4.63;4.33;;;27.10;60.20;28.10;97074.00;;;;5108459;28;20591;-83
2022/07/21 09:41:11;;;;;;;5.00;4.60;;;27.10;60.00;28.00;97068.00;;;;5102443;28;20196;-83
2022/07/21 09:43:42;;;;;;;4.63;4.33;;;27.10;59.90;28.00;97072.00;;;;5098207;28;20192;-83
2022/07/21 09:46:17;;;;;;;5.60;5.07;;;27.10;59.90;27.90;97069.00;;;;5113036;28;20228;-84
2022/07/21 09:48:49;;;;;;;6.60;5.80;;;27.10;60.00;27.90;97069.00;;;;5113015;28;20241;-83
2022/07/21 09:51:27;;;;;;;5.17;4.77;;;27.10;60.10;27.90;97071.00;;;;5105633;28;20188;-83
2022/07/21 09:53:59;;;;;;;5.07;4.63;;;27.00;60.10;27.90;97073.00;;;;5107871;28;20323;-83
2022/07/21 09:56:29;;;;;;;5.13;4.77;;;27.00;60.00;27.90;97067.00;;;;5105269;28;20693;-83
2022/07/21 09:58:58;;;;;;;5.27;4.87;;;27.00;60.10;27.90;97075.00;;;;5105428;28;20773;-82
2022/07/21 10:01:27;;;;;;;5.03;4.60;;;27.00;60.20;28.00;97070.00;;;;5106378;28;20219;-83
2022/07/21 10:03:58;;;;;;;5.33;4.67;;;27.00;59.90;28.00;97067.00;;;;5103697;28;20218;-83
2022/07/21 10:06:29;;;;;;;5.07;4.67;;;27.00;59.90;28.00;97066.00;;;;5106842;28;20222;-83
2022/07/21 10:08:58;;;;;;;5.03;4.50;;;27.00;60.10;28.10;97073.00;;;;5104823;28;20210;-84
2022/07/21 10:11:26;;;;;;;4.90;4.40;;;27.00;60.20;28.10;97069.00;;;;5105936;28;20541;-83
2022/07/21 10:13:55;;;;;;;4.50;4.20;;;27.10;60.20;28.10;97068.00;;;;5095642;28;20618;-83
2022/07/21 10:16:23;;;;;;;5.97;5.07;;;27.10;60.10;28.10;97076.00;;;;5094469;28;20203;-83
2022/07/21 10:19:20;;;;;;;4.90;4.50;;;27.10;60.00;28.10;97075.00;;;;5094376;28;20670;-83
2022/07/21 10:22:01;;;;;;;5.20;4.73;;;27.10;59.90;28.10;97078.00;;;;5103367;28;20195;-83
2022/07/21 10:24:30;;;;;;;5.00;4.60;;;27.10;60.20;28.10;97085.00;;;;5104415;28;20199;-83
2022/07/21 10:27:04;;;;;;;5.10;4.70;;;27.10;59.80;28.10;97083.00;;;;5102578;28;20275;-83
2022/07/21 10:29:56;;;;;;;4.80;4.30;;;27.10;59.80;28.10;97083.00;;;;5104144;28;20413;-83
2022/07/21 10:32:28;;;;;;;4.47;4.17;;;27.20;59.60;28.10;97087.00;;;;5101770;28;20278;-83
2022/07/21 10:34:59;;;;;;;5.27;4.87;;;27.10;59.60;28.10;97085.00;;;;5092640;28;20634;-83
2022/07/21 10:37:47;;;;;;;4.90;4.57;;;27.20;59.50;28.10;97080.00;;;;5101428;28;20227;-83
2022/07/21 10:40:41;;;;;;;5.07;4.73;;;27.20;59.50;28.10;97085.00;;;;5101697;28;20195;-83
2022/07/21 10:43:41;;;;;;;4.77;4.40;;;27.20;59.50;28.00;97083.00;;;;5088802;28;20238;-86
2022/07/21 10:46:38;;;;;;;4.77;4.47;;;27.10;59.70;28.00;97086.00;;;;5091361;28;20223;-86
2022/07/21 10:49:08;;;;;;;4.63;4.33;;;27.10;59.50;28.00;97087.00;;;;5092479;28;20227;-86
2022/07/21 10:51:39;;;;;;;4.80;4.40;;;27.10;59.50;28.00;97088.00;;;;5085726;28;20192;-86
2022/07/21 10:54:27;;;;;;;4.73;4.43;;;27.10;59.60;27.90;97090.00;;;;5094954;28;20184;-87
2022/07/21 10:57:27;;;;;;;5.83;5.33;;;27.10;59.80;27.90;97090.00;;;;5095176;28;20289;-87
2022/07/21 11:00:27;;;;;;;5.80;5.30;;;27.10;59.70;27.90;97098.00;;;;5085736;28;20611;-86
2022/07/21 11:02:58;;;;;;;5.10;4.80;;;27.00;59.80;27.90;97102.00;;;;4989418;28;20194;-87
2022/07/21 11:05:28;;;;;;;5.63;5.13;;;27.00;59.90;27.90;97094.00;;;;5075049;28;20282;-86
2022/07/21 11:08:18;;;;;;;5.87;5.37;;;27.00;60.00;27.80;97095.00;;;;5094999;28;20225;-87